createdAt,value
2023-10-18T00:01:00.589Z,99847.50
2023-10-18T00:03:31.161Z,99837.06
2023-10-18T00:06:00.971Z,99839.56
2023-10-18T00:08:29.583Z,99833.38
2023-10-18T00:11:04.929Z,99835.00
2023-10-18T00:13:35.030Z,99827.78
2023-10-18T00:16:06.334Z,99819.94
2023-10-18T00:18:35.588Z,99810.34
2023-10-18T00:21:07.145Z,99806.06
2023-10-18T00:23:35.663Z,99807.69
2023-10-18T00:26:09.543Z,99809.34
2023-10-18T00:28:39.464Z,99807.41
2023-10-18T00:31:18.221Z,99807.41
2023-10-18T00:33:47.705Z,99801.31
2023-10-18T00:36:18.527Z,99796.13
2023-10-18T00:38:47.353Z,99795.25
2023-10-18T00:41:17.614Z,99787.50
2023-10-18T00:43:46.991Z,99791.78
2023-10-18T00:46:16.782Z,99787.50
2023-10-18T00:48:46.877Z,99779.75
2023-10-18T00:51:19.334Z,99782.31
2023-10-18T00:53:49.180Z,99787.50
2023-10-18T00:56:19.169Z,99785.72
2023-10-18T00:58:48.551Z,99776.00
2023-10-18T01:01:19.536Z,99768.16
2023-10-18T01:03:53.428Z,99773.25
2023-10-18T01:06:25.979Z,99766.38
2023-10-18T01:08:56.957Z,99771.56
2023-10-18T01:11:29.790Z,99768.16
2023-10-18T01:14:01.005Z,99768.16
2023-10-18T01:16:31.816Z,99769.84
2023-10-18T01:19:02.839Z,99767.28
2023-10-18T01:21:33.805Z,99765.50
2023-10-18T01:24:02.573Z,99769.72
2023-10-18T01:26:37.685Z,99763.75
2023-10-18T01:29:09.624Z,99767.06
2023-10-18T01:31:41.091Z,99756.72
2023-10-18T01:34:11.255Z,99748.84
2023-10-18T01:36:42.106Z,99747.88
2023-10-18T01:39:19.935Z,99746.03
2023-10-18T01:41:54.420Z,99749.47
2023-10-18T01:44:32.317Z,99743.25
2023-10-18T01:47:07.711Z,99726.72
2023-10-18T01:49:41.922Z,99729.25
2023-10-18T01:52:11.770Z,99723.06
2023-10-18T01:54:42.673Z,99719.50
2023-10-18T01:57:14.108Z,99721.09
2023-10-18T01:59:42.719Z,99724.41
2023-10-18T02:02:12.457Z,99725.22
2023-10-18T02:04:53.186Z,99720.84
2023-10-18T02:07:23.741Z,99719.84
2023-10-18T02:09:54.385Z,99716.38
2023-10-18T02:12:27.466Z,99727.59
2023-10-18T02:14:56.908Z,99728.31
2023-10-18T02:17:25.952Z,99723.09
2023-10-18T02:19:55.265Z,99726.50
2023-10-18T02:22:23.824Z,99727.22
2023-10-18T02:24:55.171Z,99724.66
2023-10-18T02:27:25.770Z,99712.56
2023-10-18T02:29:54.302Z,99713.38
2023-10-18T02:32:34.159Z,99710.72
2023-10-18T02:35:05.498Z,99708.00
2023-10-18T02:37:34.046Z,99703.66
2023-10-18T02:40:10.197Z,99708.81
2023-10-18T02:42:40.938Z,99706.28
2023-10-18T02:45:15.166Z,99695.91
2023-10-18T02:47:46.497Z,99694.94
2023-10-18T02:50:16.648Z,99687.06
2023-10-18T02:52:47.363Z,99683.72
2023-10-18T02:55:19.779Z,99678.56
2023-10-18T02:57:50.364Z,99678.56
2023-10-18T03:00:20.885Z,99686.22
2023-10-18T03:02:51.476Z,99675.84
2023-10-18T03:05:21.545Z,99673.25
2023-10-18T03:07:50.352Z,99664.53
2023-10-18T03:10:28.782Z,99662.03
2023-10-18T03:13:02.262Z,99649.94
2023-10-18T03:15:31.000Z,99641.19
2023-10-18T03:18:01.402Z,99643.78
2023-10-18T03:20:30.017Z,99642.84
2023-10-18T03:23:03.521Z,99644.44
2023-10-18T03:25:32.551Z,99642.69
2023-10-18T03:28:05.871Z,99645.25
2023-10-18T03:30:46.243Z,99637.38
2023-10-18T03:33:15.751Z,99627.88
2023-10-18T03:35:50.857Z,99624.31
2023-10-18T03:38:19.895Z,99622.53
2023-10-18T03:40:57.418Z,99622.50
2023-10-18T03:43:33.353Z,99625.97
2023-10-18T03:46:14.888Z,99619.03
2023-10-18T03:48:47.507Z,99621.63
2023-10-18T03:51:20.316Z,99614.69
2023-10-18T03:53:53.888Z,99617.19
2023-10-18T03:56:24.060Z,99612.03
2023-10-18T03:59:03.982Z,99607.75
2023-10-18T04:01:41.341Z,99612.78
2023-10-18T04:04:19.221Z,99597.22
2023-10-18T04:06:51.278Z,99600.69
2023-10-18T04:09:20.099Z,99598.91
2023-10-18T04:11:48.877Z,99600.69
2023-10-18T04:14:22.166Z,99595.63
2023-10-18T04:16:58.128Z,99589.59
2023-10-18T04:19:26.990Z,99589.59
2023-10-18T04:21:56.117Z,99580.16
2023-10-18T04:24:26.212Z,99571.50
2023-10-18T04:26:57.786Z,99570.59
2023-10-18T04:29:33.557Z,99570.50
2023-10-18T04:32:04.974Z,99560.06
2023-10-18T04:34:35.052Z,99567.72
2023-10-18T04:37:06.466Z,99548.69
2023-10-18T04:39:35.598Z,99553.78
2023-10-18T04:42:07.959Z,99551.16
2023-10-18T04:44:39.111Z,99539.06
2023-10-18T04:47:15.776Z,99546.88
2023-10-18T04:49:51.378Z,99542.50
2023-10-18T04:52:29.658Z,99545.91
2023-10-18T04:55:06.304Z,99531.09
2023-10-18T04:57:39.883Z,99538.84
2023-10-18T05:00:36.339Z,99537.88
2023-10-18T05:03:08.604Z,99536.09
2023-10-18T05:05:45.825Z,99533.53
2023-10-18T05:08:16.331Z,99530.06
2023-10-18T05:10:47.275Z,99531.75
2023-10-18T05:13:33.317Z,99522.19
2023-10-18T05:16:05.646Z,99525.59
2023-10-18T05:18:34.426Z,99528.91
2023-10-18T05:21:08.968Z,99522.00
2023-10-18T05:23:37.690Z,99520.22
2023-10-18T05:26:18.342Z,99509.75
2023-10-18T05:28:50.881Z,99508.88
2023-10-18T05:31:44.196Z,99502.78
2023-10-18T05:34:23.623Z,99507.78
2023-10-18T05:36:59.223Z,99504.31
2023-10-18T05:39:34.998Z,99504.38
2023-10-18T05:42:04.773Z,99504.38
2023-10-18T05:44:33.802Z,99501.81
2023-10-18T05:47:07.793Z,99501.00
2023-10-18T05:49:42.511Z,99492.28
2023-10-18T05:52:31.283Z,99493.13
2023-10-18T05:54:59.995Z,99493.06
2023-10-18T05:57:28.460Z,99486.13
2023-10-18T05:59:57.009Z,99483.53
2023-10-18T06:02:27.576Z,99484.44
2023-10-18T06:04:57.545Z,99483.53
2023-10-18T06:07:27.818Z,99479.28
2023-10-18T06:10:02.031Z,99472.41
2023-10-18T06:12:31.893Z,99473.22
2023-10-18T06:15:14.496Z,99471.44
2023-10-18T06:17:54.398Z,99464.53
2023-10-18T06:20:28.664Z,99461.00
2023-10-18T06:23:09.922Z,99464.47
2023-10-18T06:25:45.926Z,99457.47
2023-10-18T06:28:22.315Z,99466.91
2023-10-18T06:30:53.821Z,99468.69
2023-10-18T06:33:24.385Z,99460.84
2023-10-18T06:35:55.969Z,99461.66
2023-10-18T06:38:26.454Z,99463.44
2023-10-18T06:41:06.895Z,99460.03
2023-10-18T06:43:37.521Z,99460.84
2023-10-18T06:46:09.913Z,99459.16
2023-10-18T06:48:40.085Z,99459.09
2023-10-18T06:51:18.444Z,99454.75
2023-10-18T06:53:51.598Z,99461.63
2023-10-18T06:56:22.238Z,99466.78
2023-10-18T06:58:51.675Z,99460.72
2023-10-18T07:01:22.112Z,99459.03
2023-10-18T07:03:52.319Z,99453.03
2023-10-18T07:06:25.216Z,99452.19
2023-10-18T07:08:54.170Z,99452.19
2023-10-18T07:11:37.944Z,99447.16
2023-10-18T07:14:14.483Z,99442.00
2023-10-18T07:16:43.702Z,99430.03
2023-10-18T07:19:33.846Z,99433.56
2023-10-18T07:22:07.680Z,99426.63
2023-10-18T07:24:38.218Z,99426.63
2023-10-18T07:27:10.405Z,99424.13
2023-10-18T07:29:39.407Z,99419.84
2023-10-18T07:32:14.498Z,99420.81
2023-10-18T07:34:44.927Z,99414.88
2023-10-18T07:37:20.897Z,99418.50
2023-10-18T07:39:57.800Z,99409.94
2023-10-18T07:42:28.129Z,99403.94
2023-10-18T07:45:04.081Z,99410.06
2023-10-18T07:47:37.935Z,99398.13
2023-10-18T07:50:35.775Z,99399.94
2023-10-18T07:53:05.801Z,99390.50
2023-10-18T07:55:39.045Z,99390.56
2023-10-18T07:58:18.722Z,99379.47
2023-10-18T08:01:09.325Z,99374.38
2023-10-18T08:03:39.516Z,99364.13
2023-10-18T08:06:16.992Z,99359.94
2023-10-18T08:08:48.160Z,99358.19
2023-10-18T08:11:17.143Z,99351.34
2023-10-18T08:13:47.289Z,99351.41
2023-10-18T08:16:21.687Z,99348.91
2023-10-18T08:18:54.537Z,99349.91
2023-10-18T08:26:04.773Z,99345.50
2023-10-18T08:28:41.907Z,99337.06
2023-10-18T08:31:18.190Z,99327.81
2023-10-18T08:33:49.558Z,99321.94
2023-10-18T08:36:19.650Z,99325.59
2023-10-18T08:38:48.118Z,99326.53
2023-10-18T08:41:19.311Z,99315.50
2023-10-18T08:44:10.157Z,99327.66
2023-10-18T08:46:53.268Z,99324.31
2023-10-18T08:49:33.511Z,99327.13
2023-10-18T08:52:10.532Z,99325.56
2023-10-18T08:54:42.232Z,99316.28
2023-10-18T08:57:13.403Z,99312.97
2023-10-18T08:59:51.899Z,99312.25
2023-10-18T09:02:22.534Z,99308.06
2023-10-18T09:04:57.192Z,99310.84
2023-10-18T09:07:42.963Z,99304.16
2023-10-18T09:10:34.558Z,99301.75
2023-10-18T09:13:30.246Z,99302.03
2023-10-18T09:16:02.936Z,99290.09
2023-10-18T09:18:33.890Z,99303.25
2023-10-18T09:21:09.106Z,99290.56
2023-10-18T09:23:38.084Z,99293.31
2023-10-18T09:26:12.097Z,99287.50
2023-10-18T09:28:44.097Z,99288.53
2023-10-18T09:31:22.180Z,99279.25
2023-10-18T09:33:53.572Z,99282.84
2023-10-18T09:36:27.360Z,99277.94
2023-10-18T09:38:57.601Z,99269.50
2023-10-18T09:41:28.361Z,99269.69
2023-10-18T09:44:02.248Z,99268.16
2023-10-18T09:46:31.801Z,99258.06
2023-10-18T09:49:06.544Z,99249.56
2023-10-18T09:51:37.254Z,99240.19
2023-10-18T09:54:08.948Z,99241.22
2023-10-18T09:56:38.725Z,99240.41
2023-10-18T09:59:10.591Z,99229.31
2023-10-18T10:01:53.369Z,99223.38
2023-10-18T10:04:23.667Z,99221.00
2023-10-18T10:06:56.236Z,99217.69
2023-10-18T10:09:31.216Z,99216.97
2023-10-18T10:12:01.530Z,99210.19
2023-10-18T10:14:36.946Z,99222.38
2023-10-18T10:17:11.333Z,99223.41
2023-10-18T10:19:44.461Z,99214.88
2023-10-18T10:22:14.793Z,99220.13
2023-10-18T10:24:45.105Z,99212.50
2023-10-18T10:27:42.611Z,99215.16
2023-10-18T10:30:27.248Z,99215.13
2023-10-18T10:33:00.694Z,99205.59
2023-10-18T10:35:34.934Z,99208.22
2023-10-18T10:38:16.242Z,99205.63
2023-10-18T10:40:46.104Z,99197.78
2023-10-18T10:43:14.674Z,99188.25
2023-10-18T10:45:55.211Z,99189.94
2023-10-18T10:48:38.168Z,99189.06
2023-10-18T10:51:09.563Z,99185.56
2023-10-18T10:53:45.206Z,99170.03
2023-10-18T10:56:21.453Z,99168.34
2023-10-18T10:58:56.603Z,99168.34
2023-10-18T11:02:07.372Z,99155.38
2023-10-18T11:04:51.710Z,99149.41
2023-10-18T11:07:24.437Z,99149.47
2023-10-18T11:10:01.109Z,99155.59
2023-10-18T11:12:30.790Z,99142.78
2023-10-18T11:15:05.374Z,99130.03
2023-10-18T11:17:37.284Z,99122.44
2023-10-18T11:20:20.889Z,99114.88
2023-10-18T11:22:52.975Z,99112.53
2023-10-18T11:25:31.476Z,99105.91
2023-10-18T11:28:22.249Z,99102.72
2023-10-18T11:30:54.762Z,99082.25
2023-10-18T11:33:37.810Z,99085.13
2023-10-18T11:36:09.977Z,99074.16
2023-10-18T11:38:39.592Z,99060.53
2023-10-18T11:41:13.001Z,99054.69
2023-10-18T11:43:41.879Z,99053.16
2023-10-18T11:46:12.908Z,99048.13
2023-10-18T11:48:44.478Z,99040.50
2023-10-18T11:51:14.720Z,99034.59
2023-10-18T11:53:43.151Z,99025.25
2023-10-18T11:56:13.120Z,99017.56
2023-10-18T11:59:00.836Z,99009.97
2023-10-18T12:01:34.978Z,99008.38
2023-10-18T12:04:08.207Z,98999.84
2023-10-18T12:06:37.814Z,98993.03
2023-10-18T12:09:26.121Z,98981.00
2023-10-18T12:11:55.275Z,98985.44
2023-10-18T12:14:24.764Z,98988.13
2023-10-18T12:16:55.975Z,98967.44
2023-10-18T12:19:28.925Z,98970.94
2023-10-18T12:22:01.164Z,98963.22
2023-10-18T12:24:29.850Z,98965.88
2023-10-18T12:26:58.460Z,98962.47
2023-10-18T12:29:30.175Z,98949.56
2023-10-18T12:32:19.960Z,98948.75
2023-10-18T12:34:57.547Z,98937.50
2023-10-18T12:37:27.148Z,98936.69
2023-10-18T12:39:59.486Z,98925.50
2023-10-18T12:42:34.784Z,98922.06
2023-10-18T12:45:10.719Z,98923.00
2023-10-18T12:47:43.725Z,98915.19
2023-10-18T12:50:19.280Z,98923.03
2023-10-18T12:52:48.367Z,98917.88
2023-10-18T12:55:34.598Z,98905.78
2023-10-18T12:58:02.083Z,98904.94
2023-10-18T13:00:43.696Z,98898.91
2023-10-18T13:03:22.996Z,98887.69
2023-10-18T13:05:54.360Z,98886.88
2023-10-18T13:08:25.694Z,98892.97
2023-10-18T13:11:15.539Z,98890.41
2023-10-18T13:13:47.786Z,98879.19
2023-10-18T13:16:16.409Z,98874.91
2023-10-18T13:18:45.410Z,98868.03
2023-10-18T13:21:16.913Z,98862.88
2023-10-18T13:23:47.251Z,98856.88
2023-10-18T13:26:21.609Z,98852.59
2023-10-18T13:28:53.562Z,98838.00
2023-10-18T13:31:31.827Z,98821.56
2023-10-18T13:34:00.682Z,98813.84
2023-10-18T13:36:30.579Z,98800.00
2023-10-18T13:38:59.381Z,98800.91
2023-10-18T13:41:27.759Z,98795.72
2023-10-18T13:43:58.666Z,98790.56
2023-10-18T13:46:28.533Z,98792.28
2023-10-18T13:48:56.965Z,98791.47
2023-10-18T13:51:25.344Z,98785.47
2023-10-18T13:53:55.220Z,98782.88
2023-10-18T13:56:23.734Z,98776.00
2023-10-18T13:58:54.104Z,98757.84
2023-10-18T14:01:24.834Z,98757.84
2023-10-18T14:03:55.189Z,98755.28
2023-10-18T14:06:32.680Z,98739.72
2023-10-18T14:09:12.684Z,98738.88
2023-10-18T14:11:43.504Z,98721.53
2023-10-18T14:14:13.370Z,98725.91
2023-10-18T14:16:41.956Z,98708.59
2023-10-18T14:19:12.463Z,98702.53
2023-10-18T14:21:43.439Z,98694.78
2023-10-18T14:24:16.704Z,98695.66
2023-10-18T14:26:45.910Z,98691.31
2023-10-18T14:29:14.454Z,98680.06
2023-10-18T14:31:44.261Z,98679.25
2023-10-18T14:34:12.819Z,98672.31
2023-10-18T14:36:41.444Z,98678.38
2023-10-18T14:39:10.438Z,98664.53
2023-10-18T14:41:40.645Z,98661.06
2023-10-18T14:44:09.195Z,98652.41
2023-10-18T14:46:38.950Z,98647.22
2023-10-18T14:49:08.125Z,98638.56
2023-10-18T14:51:36.627Z,98634.25
2023-10-18T14:54:05.648Z,98637.72
2023-10-18T14:56:35.626Z,98626.47
2023-10-18T14:59:05.477Z,98629.09
2023-10-18T15:01:35.865Z,98622.13
2023-10-18T15:04:06.340Z,98624.69
2023-10-18T15:06:38.501Z,98609.06
2023-10-18T15:09:07.544Z,98613.44
2023-10-18T15:11:39.842Z,98611.69
2023-10-18T15:14:12.946Z,98614.28
2023-10-18T15:16:41.749Z,98611.69
2023-10-18T15:19:11.154Z,98606.47
2023-10-18T15:21:39.631Z,98609.94
2023-10-18T15:24:09.745Z,98593.47
2023-10-18T15:26:39.868Z,98594.34
2023-10-18T15:29:10.316Z,98584.81
2023-10-18T15:31:39.070Z,98583.06
2023-10-18T15:34:07.765Z,98578.72
2023-10-18T15:36:36.367Z,98578.72
2023-10-18T15:39:09.354Z,98575.19
2023-10-18T15:41:40.663Z,98562.22
2023-10-18T15:44:11.424Z,98556.97
2023-10-18T15:46:40.040Z,98556.06
2023-10-18T15:49:09.254Z,98547.41
2023-10-18T15:51:37.919Z,98534.41
2023-10-18T15:54:08.033Z,98541.31
2023-10-18T15:56:36.703Z,98540.47
2023-10-18T15:59:06.487Z,98547.38
2023-10-18T16:01:47.116Z,98538.69
2023-10-18T16:04:24.454Z,98534.34
2023-10-18T16:06:57.000Z,98526.53
2023-10-18T16:09:29.151Z,98532.59
2023-10-18T16:11:59.670Z,98534.31
2023-10-18T16:14:31.004Z,98539.47
2023-10-18T16:17:02.688Z,98530.81
2023-10-18T16:19:32.171Z,98530.81
2023-10-18T16:22:00.704Z,98527.31
2023-10-18T16:24:30.083Z,98515.22
2023-10-18T16:26:58.662Z,98516.09
2023-10-18T16:29:27.193Z,98507.41
2023-10-18T16:31:55.731Z,98501.31
2023-10-18T16:34:25.741Z,98500.47
2023-10-18T16:36:54.210Z,98487.47
2023-10-18T16:39:23.773Z,98488.31
2023-10-18T16:41:52.662Z,98488.31
2023-10-18T16:44:21.527Z,98484.84
2023-10-18T16:46:51.593Z,98488.31
2023-10-18T16:49:20.132Z,98498.69
2023-10-18T16:51:50.730Z,98500.44
2023-10-18T16:54:19.245Z,98489.19
2023-10-18T16:56:50.592Z,98488.31
2023-10-18T16:59:19.289Z,98486.59
2023-10-18T17:01:47.856Z,98483.97
2023-10-18T17:04:16.686Z,98493.50
2023-10-18T17:06:46.196Z,98481.34
2023-10-18T17:09:19.499Z,98478.78
2023-10-18T17:11:48.390Z,98470.09
2023-10-18T17:14:17.446Z,98467.50
2023-10-18T17:16:47.020Z,98466.63
2023-10-18T17:19:16.043Z,98462.31
2023-10-18T17:21:44.680Z,98452.72
2023-10-18T17:24:14.258Z,98460.56
2023-10-18T17:26:44.357Z,98450.16
2023-10-18T17:29:12.798Z,98448.38
2023-10-18T17:31:41.657Z,98447.50
2023-10-18T17:34:12.819Z,98446.66
2023-10-18T17:36:42.147Z,98453.56
2023-10-18T17:39:12.204Z,98450.94
2023-10-18T17:41:40.720Z,98449.25
2023-10-18T17:44:17.782Z,98446.63
2023-10-18T17:46:46.836Z,98440.56
2023-10-18T17:49:17.947Z,98437.13
2023-10-18T17:51:46.567Z,98431.91
2023-10-18T17:54:17.263Z,98428.47
2023-10-18T17:56:46.701Z,98423.28
2023-10-18T17:59:19.548Z,98417.19
2023-10-18T18:01:53.560Z,98410.25
2023-10-18T18:04:22.902Z,98412.00
2023-10-18T18:06:53.709Z,98394.69
2023-10-18T18:09:23.930Z,98389.50
2023-10-18T18:11:54.728Z,98388.63
2023-10-18T18:14:25.838Z,98385.19
2023-10-18T18:16:54.846Z,98378.28
2023-10-18T18:19:26.062Z,98378.28
2023-10-18T18:21:55.193Z,98363.56
2023-10-18T18:24:23.942Z,98373.94
2023-10-18T18:26:52.525Z,98368.78
2023-10-18T18:29:21.151Z,98360.13
2023-10-18T18:31:51.140Z,98357.56
2023-10-18T18:34:19.734Z,98353.22
2023-10-18T18:36:48.213Z,98360.16
2023-10-18T18:39:16.939Z,98351.53
2023-10-18T18:41:46.894Z,98354.97
2023-10-18T18:44:15.407Z,98355.88
2023-10-18T18:46:44.456Z,98353.25
2023-10-18T18:49:14.777Z,98348.97
2023-10-18T18:51:43.253Z,98353.28
2023-10-18T18:54:11.668Z,98341.16
2023-10-18T18:56:40.896Z,98342.88
2023-10-18T18:59:09.396Z,98335.09
2023-10-18T19:01:38.080Z,98332.47
2023-10-18T19:04:06.738Z,98335.09
2023-10-18T19:06:36.693Z,98331.66
2023-10-18T19:09:06.298Z,98319.50
2023-10-18T19:11:34.733Z,98309.97
2023-10-18T19:14:04.775Z,98315.19
2023-10-18T19:16:33.793Z,98304.78
2023-10-18T19:19:02.379Z,98303.06
2023-10-18T19:21:32.601Z,98306.53
2023-10-18T19:24:02.718Z,98300.47
2023-10-18T19:26:32.033Z,98302.22
2023-10-18T19:29:01.509Z,98292.66
2023-10-18T19:31:29.885Z,98284.88
2023-10-18T19:33:58.349Z,98275.34
2023-10-18T19:36:26.917Z,98265.81
2023-10-18T19:38:56.749Z,98262.34
2023-10-18T19:41:26.721Z,98257.16
2023-10-18T19:43:55.125Z,98245.91
2023-10-18T19:46:23.572Z,98248.50
2023-10-18T19:48:52.097Z,98251.09
2023-10-18T19:51:21.076Z,98246.75
2023-10-18T19:53:51.021Z,98245.03
2023-10-18T19:56:19.710Z,98250.25
2023-10-18T19:58:49.707Z,98246.75
2023-10-18T20:01:18.336Z,98241.56
2023-10-18T20:03:46.969Z,98242.44
2023-10-18T20:06:17.233Z,98229.44
2023-10-18T20:08:47.952Z,98233.78
2023-10-18T20:11:16.564Z,98232.06
2023-10-18T20:13:44.971Z,98237.28
2023-10-18T20:16:15.849Z,98229.47
2023-10-18T20:18:44.521Z,98222.56
2023-10-18T20:21:14.615Z,98222.56
2023-10-18T20:23:43.325Z,98220.81
2023-10-18T20:26:16.552Z,98214.75
2023-10-18T20:28:45.377Z,98213.88
2023-10-18T20:31:15.305Z,98223.41
2023-10-18T20:33:44.535Z,98207.78
2023-10-18T20:36:14.638Z,98208.66
2023-10-18T20:38:43.844Z,98206.94
2023-10-18T20:41:13.035Z,98206.06
2023-10-18T20:43:41.984Z,98201.72
2023-10-18T20:46:13.711Z,98204.31
2023-10-18T20:48:46.174Z,98201.69
2023-10-18T20:51:14.856Z,98195.63
2023-10-18T20:53:44.032Z,98192.13
2023-10-18T20:56:12.852Z,98185.22
2023-10-18T20:58:42.344Z,98172.25
2023-10-18T21:01:14.023Z,98171.34
2023-10-18T21:03:45.109Z,98167.00
2023-10-18T21:06:18.869Z,98163.53
2023-10-18T21:08:49.359Z,98165.28
2023-10-18T21:11:18.744Z,98170.44
2023-10-18T21:13:47.405Z,98168.69
2023-10-18T21:16:16.438Z,98158.31
2023-10-18T21:18:47.360Z,98155.69
2023-10-18T21:21:16.452Z,98152.22
2023-10-18T21:23:46.693Z,98147.03
2023-10-18T21:26:15.987Z,98146.16
2023-10-18T21:28:46.235Z,98137.47
2023-10-18T21:31:15.793Z,98127.06
2023-10-18T21:33:46.314Z,98114.97
2023-10-18T21:36:16.981Z,98118.41
2023-10-18T21:38:46.406Z,98107.16
2023-10-18T21:41:17.386Z,98094.16
2023-10-18T21:43:48.486Z,98096.72
2023-10-18T21:46:18.336Z,98094.09
2023-10-18T21:48:48.370Z,98089.81
2023-10-18T21:51:17.051Z,98084.63
2023-10-18T21:53:47.842Z,98082.03
2023-10-18T21:56:16.710Z,98087.22
2023-10-18T21:58:47.453Z,98076.84
2023-10-18T22:01:34.631Z,98068.19
2023-10-18T22:04:08.394Z,98068.13
2023-10-18T22:06:39.435Z,98052.56
2023-10-18T22:09:09.080Z,98064.66
2023-10-18T22:11:37.608Z,98050.81
2023-10-18T22:14:19.735Z,98046.44
2023-10-18T22:16:54.801Z,98041.25
2023-10-18T22:19:31.191Z,98045.59
2023-10-18T22:22:12.460Z,98043.84
2023-10-18T22:24:42.008Z,98039.50
2023-10-18T22:27:16.465Z,98032.59
2023-10-18T22:29:51.679Z,98033.47
2023-10-18T22:32:26.145Z,98026.53
2023-10-18T22:35:00.787Z,98023.94
2023-10-18T22:37:29.666Z,98028.28
2023-10-18T22:40:04.611Z,98023.06
2023-10-18T22:42:40.280Z,98019.63
2023-10-18T22:45:19.872Z,98021.34
2023-10-18T22:47:52.144Z,98015.25
2023-10-18T22:50:26.585Z,98011.84
2023-10-18T22:53:14.527Z,98015.28
2023-10-18T22:55:47.762Z,98001.41
2023-10-18T22:58:18.198Z,97996.19
2023-10-18T23:00:50.212Z,97995.31
2023-10-18T23:03:20.512Z,97994.50
2023-10-18T23:05:50.608Z,97986.69
2023-10-18T23:08:24.235Z,97982.34
2023-10-18T23:10:56.841Z,97988.41
2023-10-18T23:13:37.114Z,97980.63
2023-10-18T23:16:11.813Z,97962.47
2023-10-18T23:18:54.993Z,97964.16
2023-10-18T23:21:29.970Z,97966.78
2023-10-18T23:24:12.886Z,97964.19
2023-10-18T23:26:59.212Z,97961.59
2023-10-18T23:29:34.644Z,97946.00
2023-10-18T23:32:13.171Z,97948.59
2023-10-18T23:34:51.221Z,97950.34
2023-10-18T23:37:46.892Z,97949.47
2023-10-18T23:40:26.743Z,97948.59
2023-10-18T23:43:11.024Z,97940.78
2023-10-18T23:45:42.068Z,97927.84
2023-10-18T23:48:29.357Z,97915.72
2023-10-18T23:51:06.825Z,97912.25
2023-10-18T23:53:45.211Z,97907.94
2023-10-18T23:56:14.136Z,97908.81
2023-10-18T23:58:49.677Z,97909.69
